NZOH/OHA METAR and TAF weather

Enter ICAO airport designator
Station Type Date Time Source
NZOH METAR 2020/11/26 00:00 UTC NOAA

NZOH 260000Z 02003G13KT 8000 SHRA FEW025 BKN050 21/15 Q1005 BECMG 20KM -SHRA TEMPO 4000 RA


Station Type Date Time Source
NZOH Decoded METAR 2020/11/26 00:00 UTC NOAA

Ohakea, New Zealand (NZOH) 40-12S 175-22E 52M
Nov 25, 2020 - 07:00 PM EST / 2020.11.26 0000 UTC
Wind: from the NNE (020 degrees) at 3 MPH (3 KT) gusting to 15 MPH (13 KT):0
Visibility: 4 mile(s):0
Sky conditions: mostly cloudy
Weather: rain showers
Temperature: 69 F (21 C)
Dew Point: 59 F (15 C)
Relative Humidity: 68%
Pressure (altimeter): 29.68 in. Hg (1005 hPa)
ob: NZOH 260000Z 02003G13KT 8000 SHRA FEW025 BKN050 21/15 Q1005 BECMG 20KM -SHRA TEMPO 4000 RA
cycle: 0

Station Type Date Time Source
NZOH TAF 2007/12/14 04:59 UTC NOAA

TAF NZOH 140459Z 140606 11020KT 30KM SCT080 BECMH 0911 03008KT
BECMG 2224 27012KT

Example: see airport list